This is the latest recevied weather packets stored in our database for station/object BV3BA-13. If no packets are shown the sender has not sent any weather packets the latest 10 day(s).
| Time | Temp. | Humidity | Pressure | Rain* | Wind** | Luminosity | Snow |
|---|---|---|---|---|---|---|---|
| 1777781224 | 29.44° C | 75% | 1006.7 hPa | 0 mm | - | - | - |
| 1777780624 | 29.44° C | 73% | 1006.7 hPa | 0 mm | - | - | - |
| 1777780024 | 30° C | 70% | 1006.6 hPa | 0 mm | - | - | - |
| 1777779424 | 29.44° C | 72% | 1006.5 hPa | 0 mm | - | - | - |
| 1777778823 | 29.44° C | 73% | 1006.6 hPa | 0 mm | - | - | - |
| 1777778224 | 30° C | 72% | 1006.6 hPa | 0 mm | - | - | - |
| 1777777624 | 29.44° C | 72% | 1006.6 hPa | 0 mm | - | - | - |
| 1777777024 | 30° C | 70% | 1006.6 hPa | 0 mm | - | - | - |
| 1777776423 | 30° C | 73% | 1006.5 hPa | 0 mm | - | - | - |
| 1777775823 | 30° C | 71% | 1006.5 hPa | 0 mm | - | - | - |
| 1777775223 | 29.44° C | 71% | 1006.3 hPa | 0 mm | - | - | - |
| 1777774624 | 29.44° C | 71% | 1006.4 hPa | 0 mm | - | - | - |
| 1777774023 | 29.44° C | 71% | 1006.6 hPa | 0 mm | - | - | - |
| 1777773423 | 29.44° C | 70% | 1006.6 hPa | 0 mm | - | - | - |
| 1777772223 | 29.44° C | 72% | 1006.7 hPa | 0 mm | - | - | - |
| 1777769224 | 28.89° C | 71% | 1006.3 hPa | 0 mm | - | - | - |
| 1777768624 | 28.89° C | 71% | 1006.3 hPa | 0 mm | - | - | - |
| 1777766824 | 27.78° C | 75% | 1006.1 hPa | 0 mm | - | - | - |
| 1777765626 | 27.22° C | 77% | 1006.1 hPa | 0 mm | - | - | - |
| 1777765024 | 26.67° C | 78% | 1006 hPa | 0 mm | - | - | - |
| 1777764424 | 26.67° C | 78% | 1005.9 hPa | 0 mm | - | - | - |
| 1777760823 | 23.33° C | 88% | 1005.3 hPa | 0 mm | - | - | - |
| 1777759625 | 22.78° C | 88% | 1005.3 hPa | 0 mm | - | - | - |
| 1777757824 | 22.78° C | 89% | 1005.1 hPa | 0 mm | - | - | - |
| 1777757224 | 22.78° C | 90% | 1005 hPa | 0 mm | - | - | - |
* Rain latest hour (hover to see other rain measurements)
** Current wind speed in m/s (hover to see current wind gust speed)